Time;durP1;ratioP1;P1;durP2;ratioP2;P2;SDS_P1;SDS_P2;PMS_P1;PMS_P2;Temp;Humidity;BMP_temperature;BMP_pressure;BME280_temperature;BME280_humidity;BME280_pressure;Samples;Min_cycle;Max_cycle;Signal;HPM_P1;HPM_P2
2022/08/28 00:00:38;;;;;;;13.32;8.00;;;20.20;99.90;;;;;;4948165;28;20327;-71
2022/08/28 00:03:04;;;;;;;12.43;7.95;;;20.10;99.90;;;;;;4947904;28;20257;-72
2022/08/28 00:05:31;;;;;;;14.68;7.75;;;20.20;99.90;;;;;;4955110;28;20302;-70
2022/08/28 00:07:57;;;;;;;11.35;6.90;;;20.20;99.90;;;;;;4950889;28;20346;-71
2022/08/28 00:10:23;;;;;;;9.88;6.82;;;20.10;99.90;;;;;;4943252;28;20211;-71
2022/08/28 00:12:50;;;;;;;15.55;5.90;;;20.20;99.90;;;;;;4959805;28;20186;-70
2022/08/28 00:15:32;;;;;;;9.93;5.43;;;20.20;99.90;;;;;;4953957;28;20230;-71
2022/08/28 00:17:59;;;;;;;8.93;5.70;;;20.10;99.90;;;;;;4946612;28;20697;-71
2022/08/28 00:20:28;;;;;;;9.13;5.03;;;20.10;99.90;;;;;;4948787;28;20226;-72
2022/08/28 00:22:54;;;;;;;9.50;4.90;;;20.00;99.90;;;;;;4957327;28;20218;-74
2022/08/28 00:25:23;;;;;;;9.25;4.75;;;20.10;99.90;;;;;;4947767;28;20612;-71
2022/08/28 00:27:52;;;;;;;9.65;4.78;;;20.00;99.90;;;;;;4949671;28;20201;-73
2022/08/28 00:30:29;;;;;;;8.20;4.70;;;20.00;99.90;;;;;;4953366;28;20183;-72
2022/08/28 00:32:58;;;;;;;10.63;4.85;;;20.00;99.90;;;;;;4949307;28;20589;-72
2022/08/28 00:35:24;;;;;;;9.93;4.72;;;20.00;99.90;;;;;;4949827;28;20298;-69
2022/08/28 00:37:51;;;;;;;11.20;5.38;;;19.90;99.90;;;;;;4957260;28;20225;-71
2022/08/28 00:40:18;;;;;;;10.73;4.63;;;20.00;99.90;;;;;;4959213;28;20206;-73
2022/08/28 00:42:45;;;;;;;8.90;4.40;;;19.90;99.90;;;;;;4950407;28;20585;-71
2022/08/28 00:45:12;;;;;;;9.05;4.95;;;19.90;99.90;;;;;;4951293;28;20683;-71
2022/08/28 00:47:38;;;;;;;8.43;4.57;;;19.90;99.90;;;;;;4961110;28;20314;-70
2022/08/28 00:50:06;;;;;;;8.20;4.95;;;19.90;99.90;;;;;;4952181;28;20210;-71
2022/08/28 00:52:32;;;;;;;14.80;6.32;;;19.90;99.90;;;;;;4949110;28;20246;-72
2022/08/28 00:55:03;;;;;;;9.27;5.10;;;20.00;99.90;;;;;;4961833;28;20202;-72
2022/08/28 00:57:40;;;;;;;10.65;4.93;;;20.00;99.90;;;;;;4957199;28;20298;-71
2022/08/28 01:00:08;;;;;;;8.07;5.28;;;19.90;99.90;;;;;;4952339;28;20206;-71
2022/08/28 01:02:34;;;;;;;6.72;4.93;;;19.90;99.90;;;;;;4949957;28;20255;-71
2022/08/28 01:05:00;;;;;;;8.82;4.68;;;19.90;99.90;;;;;;4960280;28;20210;-70
2022/08/28 01:07:26;;;;;;;10.00;5.53;;;19.90;99.90;;;;;;4952920;28;20219;-71
2022/08/28 01:09:53;;;;;;;11.15;5.70;;;19.90;99.90;;;;;;4950018;28;20285;-71
2022/08/28 01:12:26;;;;;;;10.93;6.47;;;19.90;99.90;;;;;;4957808;28;20179;-71
2022/08/28 01:14:57;;;;;;;11.27;5.90;;;19.90;99.90;;;;;;4958211;28;20233;-71
2022/08/28 01:17:27;;;;;;;9.93;5.40;;;19.90;99.90;;;;;;4949242;28;20846;-70
2022/08/28 01:19:57;;;;;;;9.23;5.95;;;20.00;99.90;;;;;;4947729;28;20696;-70
2022/08/28 01:22:29;;;;;;;10.65;7.22;;;20.00;99.90;;;;;;4961510;28;20224;-71
2022/08/28 01:24:57;;;;;;;8.95;6.50;;;20.00;99.90;;;;;;4954484;28;20218;-75
2022/08/28 01:27:23;;;;;;;10.45;6.93;;;20.00;99.90;;;;;;4952660;28;20254;-71
2022/08/28 01:29:49;;;;;;;13.38;8.85;;;20.00;99.90;;;;;;4962644;28;20297;-72
2022/08/28 01:32:28;;;;;;;12.32;8.63;;;19.90;99.90;;;;;;4949521;28;20215;-71
2022/08/28 01:34:54;;;;;;;22.15;13.23;;;19.90;99.90;;;;;;4950270;28;20219;-70
2022/08/28 01:37:20;;;;;;;21.55;13.23;;;19.90;99.90;;;;;;4954119;28;20262;-71
2022/08/28 01:39:45;;;;;;;11.52;9.13;;;19.90;99.90;;;;;;4961414;28;20178;-72
2022/08/28 01:42:12;;;;;;;14.68;8.88;;;19.90;99.90;;;;;;4952216;28;20195;-71
2022/08/28 01:44:38;;;;;;;18.25;11.40;;;19.90;99.90;;;;;;4954863;28;20593;-71
2022/08/28 01:47:03;;;;;;;13.85;9.98;;;19.90;99.90;;;;;;4959017;28;20225;-72
2022/08/28 01:49:29;;;;;;;12.63;9.43;;;20.00;99.90;;;;;;4962912;28;20357;-69
2022/08/28 01:51:56;;;;;;;16.83;8.90;;;20.00;99.90;;;;;;4951089;28;20219;-71
2022/08/28 01:54:21;;;;;;;14.23;9.88;;;20.00;99.90;;;;;;4957675;28;20175;-70
2022/08/28 01:56:47;;;;;;;15.90;9.73;;;19.90;99.90;;;;;;4959862;28;20210;-70
2022/08/28 01:59:13;;;;;;;12.30;9.10;;;19.90;99.90;;;;;;4951524;28;20206;-73
2022/08/28 02:01:41;;;;;;;15.57;9.60;;;19.90;99.90;;;;;;4954458;28;20212;-71
2022/08/28 02:04:07;;;;;;;17.15;9.85;;;19.90;99.90;;;;;;4960098;28;20218;-71
2022/08/28 02:06:32;;;;;;;15.10;9.48;;;19.90;99.90;;;;;;4957442;28;20603;-71
2022/08/28 02:08:59;;;;;;;17.13;9.00;;;19.90;99.90;;;;;;4950791;28;20179;-71
2022/08/28 02:11:25;;;;;;;13.05;9.63;;;19.90;99.90;;;;;;4952055;28;20218;-71
2022/08/28 02:13:52;;;;;;;15.70;9.90;;;19.90;99.90;;;;;;4952489;28;20230;-71
2022/08/28 02:16:18;;;;;;;13.32;9.70;;;19.90;99.90;;;;;;4949087;28;20211;-70
2022/08/28 02:18:44;;;;;;;17.92;12.23;;;19.90;99.90;;;;;;4955810;28;20203;-70
2022/08/28 02:21:10;;;;;;;18.17;9.95;;;19.90;99.90;;;;;;4959695;28;20175;-70
2022/08/28 02:23:41;;;;;;;12.77;9.45;;;19.90;99.90;;;;;;4955295;28;20223;-70
2022/08/28 02:26:08;;;;;;;13.20;9.45;;;19.90;99.90;;;;;;4950627;28;20218;-70
2022/08/28 02:28:34;;;;;;;11.23;9.15;;;19.90;99.90;;;;;;4955108;28;20586;-71
2022/08/28 02:30:59;;;;;;;12.98;8.90;;;19.90;99.90;;;;;;4958379;28;20218;-71
2022/08/28 02:33:25;;;;;;;12.65;8.38;;;19.80;99.90;;;;;;4950274;28;20250;-70
2022/08/28 02:35:51;;;;;;;14.45;8.70;;;19.80;99.90;;;;;;4949729;28;20231;-72
2022/08/28 02:38:16;;;;;;;12.07;7.82;;;19.80;99.90;;;;;;4959339;28;20207;-72
2022/08/28 02:40:42;;;;;;;13.23;7.30;;;19.70;99.90;;;;;;4959642;28;20265;-71
2022/08/28 02:43:08;;;;;;;13.43;7.82;;;19.70;99.90;;;;;;4954125;28;20234;-71
2022/08/28 02:45:35;;;;;;;12.43;7.30;;;19.70;99.90;;;;;;4953458;28;20207;-71
2022/08/28 02:48:00;;;;;;;10.77;7.50;;;19.60;99.90;;;;;;4958517;28;20190;-71
2022/08/28 02:50:28;;;;;;;11.52;6.72;;;19.60;99.90;;;;;;4953995;28;20298;-71
2022/08/28 02:52:54;;;;;;;10.23;6.20;;;19.50;99.90;;;;;;4948608;28;21016;-71
2022/08/28 02:55:20;;;;;;;15.20;7.05;;;19.50;99.90;;;;;;4959683;28;20211;-71
2022/08/28 02:57:46;;;;;;;11.93;6.70;;;19.40;99.90;;;;;;4956390;28;20209;-70
2022/08/28 03:00:16;;;;;;;11.77;6.15;;;19.40;99.90;;;;;;4954781;28;20552;-70
2022/08/28 03:02:44;;;;;;;12.02;6.18;;;19.40;99.90;;;;;;4957118;28;20293;-71
2022/08/28 03:05:10;;;;;;;16.40;7.20;;;19.40;99.90;;;;;;4957721;28;20218;-71
2022/08/28 03:07:36;;;;;;;15.05;6.43;;;19.30;99.90;;;;;;4952616;28;20238;-71
2022/08/28 03:10:03;;;;;;;10.50;5.53;;;19.40;99.90;;;;;;4952700;28;20293;-70
2022/08/28 03:12:29;;;;;;;12.88;6.25;;;19.30;99.90;;;;;;4959722;28;20187;-68
2022/08/28 03:14:55;;;;;;;8.73;5.72;;;19.30;99.90;;;;;;4961768;28;20221;-70
2022/08/28 03:17:21;;;;;;;12.82;5.88;;;19.20;99.90;;;;;;4948579;28;20348;-71
2022/08/28 03:19:48;;;;;;;11.13;5.53;;;19.20;99.90;;;;;;4959859;28;20202;-71
2022/08/28 03:22:16;;;;;;;11.20;6.20;;;19.20;99.90;;;;;;4953371;28;20223;-73
2022/08/28 03:24:41;;;;;;;11.88;5.82;;;19.10;99.90;;;;;;4955519;28;20183;-71
2022/08/28 03:27:07;;;;;;;8.57;5.45;;;19.20;99.90;;;;;;4946793;28;20250;-70
2022/08/28 03:29:33;;;;;;;14.48;5.72;;;19.20;99.90;;;;;;4951683;28;20203;-71
2022/08/28 03:31:59;;;;;;;11.68;5.25;;;19.20;99.90;;;;;;4961071;28;20221;-71
2022/08/28 03:34:24;;;;;;;11.80;4.88;;;19.20;99.90;;;;;;4947821;28;20234;-71
2022/08/28 03:36:50;;;;;;;8.77;5.05;;;19.20;99.90;;;;;;4949106;28;20230;-70
2022/08/28 03:39:16;;;;;;;9.10;4.90;;;19.10;99.90;;;;;;4956229;28;20179;-71
2022/08/28 03:41:41;;;;;;;13.07;4.82;;;19.10;99.90;;;;;;4956172;28;20584;-71
2022/08/28 03:44:08;;;;;;;11.63;5.18;;;19.10;99.90;;;;;;4961542;28;20210;-72
2022/08/28 03:46:33;;;;;;;10.63;4.72;;;19.20;99.90;;;;;;4956118;28;20253;-71
2022/08/28 03:49:01;;;;;;;8.75;4.78;;;19.10;99.90;;;;;;4958350;28;20245;-69
2022/08/28 03:51:30;;;;;;;11.25;4.90;;;19.10;99.90;;;;;;4950890;28;20226;-71
2022/08/28 03:54:00;;;;;;;12.07;4.70;;;19.10;99.90;;;;;;4955346;28;20226;-70
2022/08/28 03:56:28;;;;;;;6.97;4.40;;;19.10;99.90;;;;;;4961553;28;20242;-70
2022/08/28 03:58:56;;;;;;;16.40;5.05;;;19.10;99.90;;;;;;4955586;28;20214;-71
2022/08/28 04:01:22;;;;;;;13.02;4.60;;;19.10;99.90;;;;;;4947660;28;20208;-70
2022/08/28 04:03:48;;;;;;;10.40;4.45;;;19.10;99.90;;;;;;4957654;28;20289;-70
2022/08/28 04:06:14;;;;;;;10.63;3.88;;;19.10;99.90;;;;;;4953815;28;20552;-71
2022/08/28 04:08:40;;;;;;;9.43;3.90;;;19.00;99.90;;;;;;4949512;28;20213;-71
2022/08/28 04:11:06;;;;;;;12.15;4.50;;;19.00;99.90;;;;;;4949590;28;20289;-70
2022/08/28 04:13:32;;;;;;;11.23;4.63;;;19.00;99.90;;;;;;4955450;28;20291;-72
2022/08/28 04:16:04;;;;;;;8.45;3.92;;;19.00;99.90;;;;;;4949840;28;20693;-69
2022/08/28 04:18:30;;;;;;;13.43;4.10;;;19.00;99.90;;;;;;4947722;28;20184;-69
2022/08/28 04:20:58;;;;;;;10.32;3.80;;;18.90;99.90;;;;;;4958722;28;20230;-71
2022/08/28 04:23:23;;;;;;;9.07;4.10;;;18.90;99.90;;;;;;4956451;28;20230;-70
2022/08/28 04:25:49;;;;;;;10.85;4.25;;;18.90;99.90;;;;;;4954108;28;20211;-70
2022/08/28 04:28:15;;;;;;;11.02;4.30;;;18.90;99.90;;;;;;4945706;28;20263;-71
2022/08/28 04:30:41;;;;;;;8.93;4.18;;;18.90;99.90;;;;;;4962087;28;20175;-71
2022/08/28 04:33:06;;;;;;;9.27;4.35;;;18.80;99.90;;;;;;4961222;28;20175;-70
2022/08/28 04:35:32;;;;;;;13.02;3.75;;;18.80;99.90;;;;;;4948101;28;20254;-71
2022/08/28 04:37:57;;;;;;;9.30;3.83;;;18.80;99.90;;;;;;4958503;28;20663;-72
2022/08/28 04:40:23;;;;;;;9.10;3.35;;;18.80;99.90;;;;;;4956555;28;20218;-71
2022/08/28 04:42:50;;;;;;;11.77;3.92;;;18.70;99.90;;;;;;4962004;28;20199;-71
2022/08/28 04:45:16;;;;;;;14.02;3.78;;;18.60;99.90;;;;;;4953888;28;20183;-71
2022/08/28 04:47:42;;;;;;;9.35;3.65;;;18.70;99.90;;;;;;4966180;28;20229;-71
2022/08/28 04:50:09;;;;;;;9.05;3.72;;;18.70;99.90;;;;;;4953508;28;20207;-69
2022/08/28 04:52:35;;;;;;;11.57;3.92;;;18.70;99.90;;;;;;4950130;28;20219;-71
2022/08/28 04:55:00;;;;;;;9.82;3.70;;;18.70;99.90;;;;;;4958759;28;20217;-71
2022/08/28 04:57:26;;;;;;;14.73;4.28;;;18.80;99.90;;;;;;4958706;28;20195;-70
2022/08/28 04:59:52;;;;;;;10.48;3.53;;;18.80;99.90;;;;;;4954422;28;20243;-71
2022/08/28 05:02:17;;;;;;;8.90;3.47;;;18.70;99.90;;;;;;4949385;28;20274;-73
2022/08/28 05:04:43;;;;;;;14.00;4.80;;;18.80;99.90;;;;;;4962865;28;20253;-71
2022/08/28 05:07:08;;;;;;;14.25;3.47;;;18.80;99.90;;;;;;4954995;28;20656;-71
2022/08/28 05:09:34;;;;;;;14.30;4.18;;;18.80;99.90;;;;;;4956901;28;20558;-72
2022/08/28 05:12:02;;;;;;;12.77;4.00;;;18.80;99.90;;;;;;4963121;28;20722;-71
2022/08/28 05:14:28;;;;;;;11.57;3.67;;;18.80;99.90;;;;;;4957673;28;20239;-72
2022/08/28 05:16:56;;;;;;;14.50;4.43;;;18.80;99.90;;;;;;4953920;28;20414;-71
2022/08/28 05:19:24;;;;;;;9.38;3.92;;;18.90;99.90;;;;;;4944936;28;20235;-70
2022/08/28 05:21:51;;;;;;;10.60;3.95;;;18.80;99.90;;;;;;4963394;28;20226;-71
2022/08/28 05:24:16;;;;;;;14.13;3.97;;;18.80;99.90;;;;;;4953432;28;20183;-71
2022/08/28 05:26:42;;;;;;;11.13;3.30;;;18.80;99.90;;;;;;4951369;28;20205;-71
2022/08/28 05:29:09;;;;;;;10.50;3.65;;;18.90;99.90;;;;;;4950859;28;20231;-71
2022/08/28 05:31:36;;;;;;;10.73;3.70;;;18.90;99.90;;;;;;4956916;28;20724;-71
2022/08/28 05:34:03;;;;;;;13.55;4.38;;;18.90;99.90;;;;;;4958466;28;20299;-72
2022/08/28 05:36:32;;;;;;;10.40;3.85;;;18.90;99.90;;;;;;4947996;28;20219;-70
2022/08/28 05:38:57;;;;;;;10.73;3.63;;;19.00;99.90;;;;;;4966396;28;20214;-71
2022/08/28 05:41:31;;;;;;;16.60;4.30;;;19.10;99.90;;;;;;4953430;28;20218;-71
2022/08/28 05:44:03;;;;;;;13.93;4.15;;;19.20;99.90;;;;;;4948677;28;20219;-71
2022/08/28 05:46:28;;;;;;;9.57;3.30;;;19.40;99.90;;;;;;4974556;23;20307;-67
2022/08/28 05:48:56;;;;;;;11.18;3.95;;;19.50;99.90;;;;;;5030507;28;20697;-67
2022/08/28 05:51:25;;;;;;;13.13;5.05;;;19.50;99.90;;;;;;5032908;28;20184;-67
2022/08/28 05:53:51;;;;;;;9.75;4.00;;;19.70;99.90;;;;;;5013339;28;20209;-68
2022/08/28 05:56:23;;;;;;;9.90;3.97;;;19.90;99.90;;;;;;5025044;28;20303;-67
2022/08/28 05:58:49;;;;;;;9.23;3.50;;;20.10;99.90;;;;;;5029985;28;20204;-67
2022/08/28 06:01:27;;;;;;;13.30;4.05;;;20.30;99.90;;;;;;5031830;28;20223;-67
2022/08/28 06:03:58;;;;;;;13.88;4.45;;;20.30;99.90;;;;;;5022347;28;20224;-67
2022/08/28 06:06:25;;;;;;;11.82;4.20;;;20.00;99.90;;;;;;5032548;28;20262;-67
2022/08/28 06:08:56;;;;;;;10.00;4.28;;;20.00;99.90;;;;;;5031681;28;20205;-67
2022/08/28 06:11:21;;;;;;;8.82;4.03;;;20.20;99.90;;;;;;5027943;28;20212;-66
2022/08/28 06:13:47;;;;;;;14.23;4.15;;;20.60;99.90;;;;;;5031735;28;20219;-67
2022/08/28 06:16:13;;;;;;;14.02;3.97;;;20.60;99.90;;;;;;5031872;28;20299;-67
2022/08/28 06:18:40;;;;;;;14.68;4.05;;;20.70;99.90;;;;;;5031333;28;20266;-67
2022/08/28 06:21:06;;;;;;;15.98;4.57;;;20.80;99.90;;;;;;5032150;28;20695;-67
2022/08/28 06:23:32;;;;;;;9.15;3.45;;;21.00;99.90;;;;;;5014704;28;20220;-67
2022/08/28 06:25:57;;;;;;;14.48;4.82;;;21.10;99.90;;;;;;5011829;28;20209;-68
2022/08/28 06:28:25;;;;;;;11.77;3.83;;;21.20;99.90;;;;;;5014488;28;20251;-66
2022/08/28 06:30:52;;;;;;;11.80;4.43;;;21.30;99.90;;;;;;5018521;28;20225;-68
2022/08/28 06:33:20;;;;;;;8.73;4.00;;;20.90;99.90;;;;;;5012053;28;20252;-67
2022/08/28 06:35:51;;;;;;;8.48;4.05;;;21.00;99.90;;;;;;5011874;28;20684;-67
2022/08/28 06:38:18;;;;;;;9.73;4.13;;;21.00;99.90;;;;;;5007169;28;20657;-67
2022/08/28 06:40:48;;;;;;;9.43;4.03;;;20.70;99.90;;;;;;5011453;28;20628;-67
2022/08/28 06:43:15;;;;;;;12.13;4.15;;;20.70;99.90;;;;;;5013556;28;20224;-67
2022/08/28 06:45:43;;;;;;;9.15;4.22;;;20.60;99.90;;;;;;5019322;28;20200;-67
2022/08/28 06:48:11;;;;;;;12.63;4.63;;;20.50;99.90;;;;;;5011485;28;20228;-67
2022/08/28 06:50:41;;;;;;;18.13;5.03;;;20.40;99.90;;;;;;5010606;28;20232;-67
2022/08/28 06:53:08;;;;;;;10.45;4.80;;;20.20;99.90;;;;;;5018319;28;20590;-67
2022/08/28 06:55:35;;;;;;;11.55;4.55;;;20.30;99.90;;;;;;5013000;28;20209;-67
2022/08/28 06:58:00;;;;;;;13.48;4.20;;;20.20;99.90;;;;;;5010615;28;20225;-67
2022/08/28 07:00:26;;;;;;;11.52;4.07;;;20.30;99.90;;;;;;5010776;28;20639;-66
2022/08/28 07:02:52;;;;;;;10.95;5.18;;;20.30;99.90;;;;;;5018265;28;20625;-67
2022/08/28 07:05:17;;;;;;;10.55;4.70;;;20.60;99.90;;;;;;5013037;28;20201;-66
2022/08/28 07:07:43;;;;;;;15.82;4.97;;;20.90;99.90;;;;;;5010202;28;20219;-67
2022/08/28 07:10:08;;;;;;;13.73;4.57;;;21.00;99.90;;;;;;5013516;28;20827;-67
2022/08/28 07:12:34;;;;;;;9.88;4.25;;;20.90;99.90;;;;;;5017091;28;20264;-67
2022/08/28 07:15:02;;;;;;;9.25;4.07;;;21.30;99.90;;;;;;5010852;28;20184;-66
2022/08/28 07:17:28;;;;;;;9.80;4.15;;;21.90;99.90;;;;;;5010269;28;20331;-67
2022/08/28 07:19:53;;;;;;;10.60;4.50;;;22.20;99.90;;;;;;5013929;28;20686;-66
2022/08/28 07:22:19;;;;;;;12.70;4.80;;;22.30;99.90;;;;;;5017235;28;20267;-66
2022/08/28 07:24:45;;;;;;;11.00;4.60;;;22.10;99.90;;;;;;5009825;28;20614;-66
2022/08/28 07:27:10;;;;;;;9.02;4.50;;;22.30;99.90;;;;;;5010430;28;20205;-67
2022/08/28 07:29:36;;;;;;;11.63;4.03;;;22.90;99.90;;;;;;5016607;28;20208;-66
2022/08/28 07:32:02;;;;;;;9.75;3.75;;;23.00;99.90;;;;;;5013998;28;20300;-67
2022/08/28 07:34:28;;;;;;;13.23;4.82;;;23.30;99.90;;;;;;5010145;28;20209;-67
2022/08/28 07:36:55;;;;;;;10.55;4.95;;;23.40;99.90;;;;;;5010543;28;20267;-68
2022/08/28 07:39:20;;;;;;;11.90;4.25;;;22.80;99.90;;;;;;5010804;28;20212;-67
2022/08/28 07:41:46;;;;;;;13.18;5.82;;;22.80;99.90;;;;;;5010129;28;20247;-67
2022/08/28 07:47:02;;;;;;;12.45;4.78;;;23.70;99.90;;;;;;5011841;28;20315;-67
2022/08/28 07:49:28;;;;;;;11.57;4.32;;;23.60;99.90;;;;;;5014519;28;20239;-67
2022/08/28 07:51:54;;;;;;;11.68;4.80;;;23.30;99.90;;;;;;5029833;28;20212;-66
2022/08/28 07:54:20;;;;;;;12.30;4.40;;;23.00;99.90;;;;;;5033717;28;20210;-66
2022/08/28 07:56:46;;;;;;;9.23;4.63;;;22.80;99.90;;;;;;5015022;28;20702;-67
2022/08/28 07:59:12;;;;;;;8.45;3.75;;;22.60;99.90;;;;;;5013196;28;20235;-66
2022/08/28 08:01:41;;;;;;;8.02;3.88;;;22.50;99.90;;;;;;5019758;28;20262;-67
2022/08/28 08:04:11;;;;;;;9.70;4.45;;;22.50;99.90;;;;;;5019457;28;20230;-67
2022/08/28 08:06:38;;;;;;;11.77;4.43;;;22.40;99.90;;;;;;5014038;28;20740;-67
2022/08/28 08:09:06;;;;;;;11.48;4.90;;;22.40;99.90;;;;;;5014563;28;20778;-67
2022/08/28 08:11:32;;;;;;;7.03;3.90;;;22.30;99.90;;;;;;5021544;28;20646;-66
2022/08/28 08:14:02;;;;;;;7.55;4.35;;;22.00;99.90;;;;;;5018063;28;20252;-67
2022/08/28 08:16:28;;;;;;;12.02;5.88;;;21.90;99.90;;;;;;5010368;28;20300;-67
2022/08/28 08:18:54;;;;;;;10.95;4.88;;;21.60;99.90;;;;;;5016858;28;20211;-67
2022/08/28 08:21:21;;;;;;;10.73;6.05;;;21.70;99.90;;;;;;5017698;28;20172;-67
2022/08/28 08:23:47;;;;;;;14.38;5.55;;;21.90;99.90;;;;;;5026690;28;20248;-67
2022/08/28 08:26:19;;;;;;;11.25;5.25;;;22.00;99.90;;;;;;5026893;28;20208;-67
2022/08/28 08:28:45;;;;;;;8.95;4.95;;;22.20;99.90;;;;;;5025455;28;20205;-67
2022/08/28 08:31:17;;;;;;;9.18;4.15;;;22.30;99.90;;;;;;5022399;28;20209;-68
2022/08/28 08:33:45;;;;;;;12.85;5.15;;;21.90;99.90;;;;;;5014812;28;20176;-68
2022/08/28 08:36:13;;;;;;;12.20;4.80;;;21.10;99.90;;;;;;5033671;28;20184;-67
2022/08/28 08:38:40;;;;;;;11.98;5.80;;;20.40;99.90;;;;;;5037359;28;20208;-67
2022/08/28 08:41:24;;;;;;;7.97;4.35;;;20.50;99.90;;;;;;5031779;28;20274;-67
2022/08/28 08:44:31;;;;;;;8.80;5.10;;;20.70;99.90;;;;;;5031203;28;20239;-67
2022/08/28 08:47:11;;;;;;;12.20;4.93;;;20.80;99.90;;;;;;5013963;28;20217;-67
2022/08/28 08:49:40;;;;;;;10.38;4.55;;;20.90;99.90;;;;;;5008629;28;20749;-67
2022/08/28 08:52:44;;;;;;;11.77;5.53;;;20.90;99.90;;;;;;5017225;28;20219;-67
2022/08/28 08:55:33;;;;;;;11.63;5.22;;;20.90;99.90;;;;;;5030697;28;20585;-68
2022/08/28 08:58:04;;;;;;;9.85;4.75;;;20.90;99.90;;;;;;5027931;28;20213;-68
2022/08/28 09:00:36;;;;;;;7.57;5.03;;;20.70;99.90;;;;;;5022093;28;20178;-67
2022/08/28 09:03:13;;;;;;;11.57;5.47;;;20.60;99.90;;;;;;5023316;28;20205;-67
2022/08/28 09:05:52;;;;;;;14.07;5.00;;;20.60;99.90;;;;;;5030877;28;20568;-67
2022/08/28 09:08:33;;;;;;;11.13;5.30;;;20.70;99.90;;;;;;5032738;28;20295;-69
2022/08/28 09:11:05;;;;;;;13.18;5.78;;;20.70;99.90;;;;;;5028924;28;20215;-70
2022/08/28 09:13:43;;;;;;;11.55;5.43;;;20.90;99.90;;;;;;5019128;28;20204;-67
2022/08/28 09:16:22;;;;;;;14.23;5.85;;;20.70;99.90;;;;;;5014601;28;20208;-70
2022/08/28 09:18:49;;;;;;;7.45;4.68;;;20.60;99.90;;;;;;5031361;28;20222;-67
2022/08/28 09:21:27;;;;;;;12.93;5.25;;;20.70;99.90;;;;;;5030598;28;20173;-67
2022/08/28 09:23:53;;;;;;;9.07;5.63;;;20.70;99.90;;;;;;5029648;28;20305;-66
2022/08/28 09:26:23;;;;;;;12.63;5.20;;;20.10;99.90;;;;;;5030271;28;20213;-69
2022/08/28 09:29:03;;;;;;;10.57;4.82;;;20.10;99.90;;;;;;5024248;28;20205;-67
2022/08/28 09:31:38;;;;;;;13.30;5.68;;;20.20;99.90;;;;;;5024195;28;20291;-66
2022/08/28 09:34:32;;;;;;;12.68;5.75;;;20.30;99.90;;;;;;5028471;28;20235;-66
2022/08/28 09:36:59;;;;;;;11.48;6.32;;;20.50;99.90;;;;;;5040456;28;20232;-66
2022/08/28 09:39:37;;;;;;;13.98;6.13;;;20.50;99.90;;;;;;5031655;28;20685;-67
2022/08/28 09:45:13;;;;;;;12.30;5.68;;;20.90;99.90;;;;;;5030468;28;20209;-67
2022/08/28 09:47:59;;;;;;;9.63;4.85;;;21.10;99.90;;;;;;5031111;28;20354;-67
2022/08/28 09:50:35;;;;;;;11.15;4.70;;;21.20;99.90;;;;;;5027970;28;20291;-68
2022/08/28 09:53:12;;;;;;;11.82;5.38;;;21.10;99.90;;;;;;5028470;28;20720;-67
2022/08/28 09:55:50;;;;;;;10.85;5.50;;;21.20;99.90;;;;;;5021653;28;20209;-67
2022/08/28 09:58:16;;;;;;;11.63;5.13;;;20.70;99.90;;;;;;5011538;28;20709;-67
2022/08/28 10:00:57;;;;;;;17.20;6.25;;;20.40;99.90;;;;;;5011602;28;20177;-67
2022/08/28 10:03:52;;;;;;;10.95;5.90;;;20.20;99.90;;;;;;5009077;28;20251;-67
2022/08/28 10:06:25;;;;;;;15.13;6.18;;;20.20;99.90;;;;;;5027953;28;20739;-67
2022/08/28 10:09:23;;;;;;;9.82;5.43;;;20.40;99.90;;;;;;5028350;28;20390;-67
2022/08/28 10:11:54;;;;;;;15.05;8.48;;;20.60;99.90;;;;;;4990470;28;20212;-66
2022/08/28 10:14:45;;;;;;;12.27;6.60;;;20.60;99.90;;;;;;5011886;28;20216;-69
2022/08/28 10:17:22;;;;;;;14.57;7.10;;;20.70;99.90;;;;;;5006095;28;20304;-67
2022/08/28 10:20:18;;;;;;;10.70;5.47;;;20.80;99.90;;;;;;5020758;28;20211;-67
2022/08/28 10:22:51;;;;;;;10.32;5.80;;;20.80;99.90;;;;;;5028510;28;20220;-67
2022/08/28 10:25:42;;;;;;;8.88;4.97;;;20.80;99.90;;;;;;5028109;28;20204;-68
2022/08/28 10:28:42;;;;;;;12.07;6.25;;;20.90;99.90;;;;;;5028585;28;20208;-68
2022/08/28 10:31:25;;;;;;;11.30;6.22;;;21.10;99.90;;;;;;5022219;28;20221;-66
2022/08/28 10:34:22;;;;;;;11.63;6.80;;;21.40;99.90;;;;;;5010242;28;20398;-67
2022/08/28 10:37:13;;;;;;;14.48;8.13;;;21.50;99.90;;;;;;5010986;28;20209;-66
2022/08/28 10:39:52;;;;;;;14.05;6.80;;;21.50;99.90;;;;;;5013467;28;20259;-69
2022/08/28 10:42:31;;;;;;;9.60;5.90;;;21.50;99.90;;;;;;5008897;28;20311;-67
2022/08/28 10:45:13;;;;;;;11.27;6.80;;;21.40;99.90;;;;;;5029209;28;20196;-67
2022/08/28 10:47:43;;;;;;;12.25;6.05;;;21.20;99.90;;;;;;5022084;28;20593;-66
2022/08/28 10:50:21;;;;;;;11.05;5.43;;;21.10;99.90;;;;;;5010090;28;20288;-67
2022/08/28 10:52:59;;;;;;;10.68;5.57;;;21.20;99.90;;;;;;5008125;28;20259;-66
2022/08/28 10:55:33;;;;;;;10.10;6.45;;;21.20;99.90;;;;;;5008833;28;20208;-65
2022/08/28 10:58:10;;;;;;;8.73;5.22;;;21.10;99.90;;;;;;5025842;28;20870;-66
2022/08/28 11:00:36;;;;;;;9.82;4.75;;;20.90;99.90;;;;;;5004211;28;20181;-68
2022/08/28 11:03:13;;;;;;;10.55;5.32;;;21.00;99.90;;;;;;5008737;28;20244;-67
2022/08/28 11:05:53;;;;;;;12.20;5.78;;;20.90;99.90;;;;;;5014238;28;20219;-67
2022/08/28 11:08:39;;;;;;;13.45;6.95;;;20.80;99.90;;;;;;5010897;28;20221;-67
2022/08/28 11:11:11;;;;;;;14.93;8.52;;;20.60;99.90;;;;;;5013540;28;20224;-67
2022/08/28 11:13:54;;;;;;;15.23;7.45;;;20.60;99.90;;;;;;5009134;28;20288;-69
2022/08/28 11:16:36;;;;;;;16.65;8.10;;;20.50;99.90;;;;;;5006493;28;20208;-67
2022/08/28 11:19:16;;;;;;;14.07;7.38;;;20.40;99.90;;;;;;5013475;28;20211;-66
2022/08/28 11:21:54;;;;;;;15.77;8.32;;;20.30;99.90;;;;;;5023385;28;20184;-66
2022/08/28 11:24:26;;;;;;;15.15;7.43;;;20.20;99.90;;;;;;5025890;28;20653;-68
2022/08/28 11:27:22;;;;;;;9.88;6.15;;;20.10;99.90;;;;;;5043288;28;20204;-70
2022/08/28 11:30:15;;;;;;;14.20;6.82;;;20.10;99.90;;;;;;5024028;28;20216;-68
2022/08/28 11:32:50;;;;;;;15.45;7.13;;;20.20;99.90;;;;;;5005657;28;20744;-67
2022/08/28 11:35:41;;;;;;;18.95;7.47;;;20.20;99.90;;;;;;5009092;28;20205;-67
2022/08/28 11:38:07;;;;;;;14.63;8.43;;;20.00;99.90;;;;;;5008625;28;20299;-67
2022/08/28 11:40:32;;;;;;;19.77;11.23;;;20.00;99.90;;;;;;5007168;28;20213;-67
2022/08/28 11:43:13;;;;;;;17.08;7.95;;;20.00;99.90;;;;;;5012441;28;20228;-66
2022/08/28 11:45:41;;;;;;;16.65;7.75;;;20.00;99.90;;;;;;5008854;28;20239;-67
2022/08/28 11:48:28;;;;;;;15.98;7.00;;;20.00;99.90;;;;;;5012898;28;20225;-66
2022/08/28 11:51:14;;;;;;;16.10;7.15;;;20.10;99.90;;;;;;5018479;28;20230;-67
2022/08/28 11:54:02;;;;;;;25.33;12.23;;;20.10;99.90;;;;;;4978447;23;20248;-70
2022/08/28 11:57:06;;;;;;;10.73;6.70;;;20.10;99.90;;;;;;4968136;28;20210;-71
2022/08/28 11:59:56;;;;;;;20.30;9.68;;;20.20;99.90;;;;;;4962161;28;20198;-69
2022/08/28 12:02:37;;;;;;;14.55;8.30;;;20.30;99.90;;;;;;4947978;28;20238;-71
2022/08/28 12:05:04;;;;;;;18.52;10.68;;;20.40;99.90;;;;;;4952266;28;20290;-70
2022/08/28 12:07:35;;;;;;;18.40;10.45;;;20.50;99.90;;;;;;4949678;28;20234;-70
2022/08/28 12:10:01;;;;;;;22.33;13.23;;;20.50;99.90;;;;;;4950046;28;20214;-71
2022/08/28 12:12:45;;;;;;;33.78;21.73;;;20.70;99.90;;;;;;4955891;28;20202;-70
2022/08/28 12:15:26;;;;;;;12.85;7.40;;;20.80;99.90;;;;;;4950003;28;20206;-71
2022/08/28 12:17:57;;;;;;;12.70;7.22;;;20.70;99.90;;;;;;4951337;28;20297;-71
2022/08/28 12:20:23;;;;;;;13.07;7.75;;;20.60;99.90;;;;;;4952497;28;20302;-70
2022/08/28 12:22:52;;;;;;;14.63;8.23;;;20.50;99.90;;;;;;4953048;28;20988;-70
2022/08/28 12:25:27;;;;;;;16.90;7.47;;;20.40;99.90;;;;;;4951646;28;20210;-70
2022/08/28 12:27:53;;;;;;;13.63;7.85;;;20.50;99.90;;;;;;4950389;28;20215;-70
2022/08/28 12:30:40;;;;;;;12.82;7.38;;;20.50;99.90;;;;;;4950055;28;20266;-69
2022/08/28 12:33:20;;;;;;;10.18;6.63;;;20.60;99.90;;;;;;4952927;28;20708;-69
2022/08/28 12:35:48;;;;;;;12.52;6.88;;;20.50;99.90;;;;;;4951759;28;20719;-70
2022/08/28 12:38:19;;;;;;;11.27;6.78;;;20.80;99.90;;;;;;4953194;28;20216;-71
2022/08/28 12:40:49;;;;;;;13.77;6.85;;;20.50;99.90;;;;;;4954242;28;20278;-69
2022/08/28 12:43:42;;;;;;;14.85;7.35;;;20.30;99.90;;;;;;4956967;28;20232;-69
2022/08/28 12:46:10;;;;;;;11.63;6.70;;;20.30;99.90;;;;;;4952711;28;20319;-69
2022/08/28 12:48:58;;;;;;;12.65;6.18;;;20.40;99.90;;;;;;4963264;28;20655;-69
2022/08/28 12:51:25;;;;;;;11.50;6.32;;;20.20;99.90;;;;;;4953413;28;20183;-69
2022/08/28 12:53:55;;;;;;;9.98;6.20;;;20.30;99.90;;;;;;4953896;28;20329;-69
2022/08/28 12:56:23;;;;;;;11.95;6.78;;;20.20;99.90;;;;;;4966215;28;20206;-69
2022/08/28 12:58:49;;;;;;;11.73;7.53;;;20.20;99.90;;;;;;4961754;28;20216;-69
2022/08/28 13:01:22;;;;;;;13.60;8.50;;;20.10;99.90;;;;;;4953524;28;20215;-70